createdAt,value
2018-02-27T00:01:44.585Z,50.32
2018-02-27T00:04:16.519Z,50.49
2018-02-27T00:06:46.568Z,50.57
2018-02-27T00:09:16.538Z,50.78
2018-02-27T00:11:47.639Z,50.71
2018-02-27T00:14:17.757Z,51.20
2018-02-27T00:16:47.893Z,51.38
2018-02-27T00:19:18.992Z,51.78
2018-02-27T00:21:49.287Z,52.21
2018-02-27T00:24:19.231Z,52.49
2018-02-27T00:26:48.823Z,52.50
2018-02-27T00:29:19.064Z,52.62
2018-02-27T00:31:49.646Z,53.00
2018-02-27T00:34:20.118Z,52.89
2018-02-27T00:36:50.456Z,53.04
2018-02-27T00:39:20.964Z,53.22
2018-02-27T00:41:51.649Z,53.51
2018-02-27T00:44:22.038Z,53.43
2018-02-27T00:46:52.731Z,53.74
2018-02-27T00:49:22.878Z,54.28
2018-02-27T00:51:53.498Z,53.92
2018-02-27T00:54:24.969Z,53.68
2018-02-27T00:56:54.865Z,54.09
2018-02-27T00:59:24.962Z,53.88
2018-02-27T01:01:55.106Z,54.08
2018-02-27T01:04:25.636Z,54.43
2018-02-27T01:07:00.903Z,54.49
2018-02-27T01:09:30.547Z,54.78
2018-02-27T01:12:00.476Z,54.70
2018-02-27T01:14:30.914Z,54.68
2018-02-27T01:17:01.533Z,54.71
2018-02-27T01:19:32.453Z,54.92
2018-02-27T01:22:02.585Z,54.97
2018-02-27T01:24:32.291Z,55.17
2018-02-27T01:27:02.225Z,55.51
2018-02-27T01:29:32.529Z,55.61
2018-02-27T01:32:03.556Z,55.83
2018-02-27T01:34:34.868Z,56.17
2018-02-27T01:37:05.507Z,55.96
2018-02-27T01:39:35.667Z,55.86
2018-02-27T01:42:05.580Z,55.67
2018-02-27T01:44:35.237Z,55.77
2018-02-27T01:47:04.999Z,55.48
2018-02-27T01:49:34.895Z,55.67
2018-02-27T01:52:04.460Z,55.75
2018-02-27T01:54:34.713Z,55.35
2018-02-27T01:57:04.524Z,55.35
2018-02-27T01:59:34.286Z,55.88
2018-02-27T02:02:06.321Z,56.13
2018-02-27T02:04:36.489Z,56.31
2018-02-27T02:07:06.406Z,56.54
2018-02-27T02:09:37.378Z,56.49
2018-02-27T02:12:07.155Z,56.57
2018-02-27T02:14:37.139Z,56.45
2018-02-27T02:17:06.963Z,56.60
2018-02-27T02:19:37.300Z,56.69
2018-02-27T02:22:06.850Z,56.52
2018-02-27T02:24:37.943Z,56.59
2018-02-27T02:27:07.988Z,56.46
2018-02-27T02:29:38.662Z,56.80
2018-02-27T02:32:10.048Z,56.96
2018-02-27T02:34:40.461Z,57.00
2018-02-27T02:37:10.478Z,56.91
2018-02-27T02:39:40.277Z,57.61
2018-02-27T02:42:18.667Z,57.48
2018-02-27T02:44:49.599Z,57.50
2018-02-27T02:47:19.914Z,57.46
2018-02-27T02:49:50.380Z,57.36
2018-02-27T02:52:19.940Z,57.59
2018-02-27T02:54:49.905Z,57.76
2018-02-27T02:57:19.657Z,58.04
2018-02-27T02:59:52.003Z,58.11
2018-02-27T03:02:24.212Z,57.93
2018-02-27T03:04:55.606Z,58.24
2018-02-27T03:07:25.375Z,58.12
2018-02-27T03:09:55.009Z,58.21
2018-02-27T03:12:30.182Z,58.44
2018-02-27T03:15:00.971Z,58.14
2018-02-27T03:17:30.958Z,58.13
2018-02-27T03:20:02.286Z,58.23
2018-02-27T03:22:32.430Z,58.43
2018-02-27T03:25:01.832Z,58.79
2018-02-27T03:27:31.632Z,58.66
2018-02-27T03:30:01.719Z,58.41
2018-02-27T03:32:31.515Z,58.44
2018-02-27T03:35:01.109Z,58.97
2018-02-27T03:37:31.935Z,59.02
2018-02-27T03:40:02.035Z,58.90
2018-02-27T03:42:32.173Z,58.75
2018-02-27T03:45:02.247Z,58.85
2018-02-27T03:47:32.156Z,58.99
2018-02-27T03:50:01.871Z,59.17
2018-02-27T03:52:31.836Z,59.79
2018-02-27T03:55:01.940Z,59.43
2018-02-27T03:57:32.442Z,59.62
2018-02-27T04:00:02.399Z,59.32
2018-02-27T04:02:32.650Z,59.48
2018-02-27T04:05:03.810Z,59.15
2018-02-27T04:07:33.738Z,59.01
2018-02-27T04:10:03.467Z,59.07
2018-02-27T04:12:35.502Z,59.04
2018-02-27T04:15:05.381Z,60.02
2018-02-27T04:17:35.247Z,60.08
2018-02-27T04:20:05.359Z,59.85
2018-02-27T04:22:35.294Z,59.50
2018-02-27T04:25:05.627Z,59.36
2018-02-27T04:27:36.598Z,59.38
2018-02-27T04:30:06.492Z,59.42
2018-02-27T04:32:37.309Z,59.56
2018-02-27T04:35:07.437Z,59.51
2018-02-27T04:37:37.125Z,59.26
2018-02-27T04:40:06.936Z,59.09
2018-02-27T04:42:36.808Z,59.65
2018-02-27T04:45:06.579Z,59.97
2018-02-27T04:47:36.611Z,59.83
2018-02-27T04:50:06.398Z,59.86
2018-02-27T04:52:36.246Z,60.26
2018-02-27T04:55:06.538Z,59.88
2018-02-27T04:57:36.481Z,59.60
2018-02-27T05:00:06.273Z,59.65
2018-02-27T05:02:36.628Z,59.85
2018-02-27T05:05:06.506Z,60.41
2018-02-27T05:07:36.321Z,60.26
2018-02-27T05:10:06.470Z,60.09
2018-02-27T05:12:36.356Z,60.39
2018-02-27T05:15:05.959Z,60.32
2018-02-27T05:17:35.987Z,60.54
2018-02-27T05:20:05.519Z,60.30
2018-02-27T05:22:35.416Z,60.37
2018-02-27T05:25:05.349Z,60.62
2018-02-27T05:27:36.138Z,60.38
2018-02-27T05:30:05.995Z,60.29
2018-02-27T05:33:17.737Z,60.48
2018-02-27T05:35:48.831Z,60.33
2018-02-27T05:38:18.653Z,60.38
2018-02-27T05:40:49.503Z,60.55
2018-02-27T05:43:19.401Z,60.98
2018-02-27T05:45:49.107Z,60.81
2018-02-27T05:48:19.857Z,60.55
2018-02-27T05:50:51.656Z,60.79
2018-02-27T05:53:21.555Z,60.11
2018-02-27T05:55:51.225Z,60.39
2018-02-27T05:58:21.301Z,60.67
2018-02-27T06:00:50.976Z,60.55
2018-02-27T06:03:20.606Z,60.75
2018-02-27T06:05:50.446Z,60.52
2018-02-27T06:08:19.976Z,60.71
2018-02-27T06:10:49.711Z,60.85
2018-02-27T06:13:19.563Z,60.55
2018-02-27T06:15:49.435Z,60.54
2018-02-27T06:18:19.590Z,60.45
2018-02-27T06:20:49.765Z,60.61
2018-02-27T06:23:21.338Z,60.98
2018-02-27T06:25:51.294Z,61.08
2018-02-27T06:28:21.395Z,60.72
2018-02-27T06:30:51.067Z,60.68
2018-02-27T06:33:20.482Z,60.51
2018-02-27T06:35:50.773Z,59.47
2018-02-27T06:38:21.179Z,59.62
2018-02-27T06:40:51.737Z,60.13
2018-02-27T06:43:21.518Z,59.94
2018-02-27T06:45:51.578Z,59.50
2018-02-27T06:48:21.251Z,59.36
2018-02-27T06:50:51.001Z,59.56
2018-02-27T06:53:20.942Z,59.25
2018-02-27T06:55:50.960Z,59.02
2018-02-27T06:58:21.310Z,59.01
2018-02-27T07:00:52.677Z,58.56
2018-02-27T07:03:22.130Z,58.58
2018-02-27T07:07:16.167Z,58.52
2018-02-27T07:09:47.425Z,58.81
2018-02-27T07:12:18.726Z,58.96
2018-02-27T07:14:48.154Z,58.86
2018-02-27T07:17:18.015Z,59.39
2018-02-27T07:19:47.878Z,59.17
2018-02-27T07:22:19.244Z,58.59
2018-02-27T07:24:48.972Z,58.17
2018-02-27T07:27:20.044Z,57.74
2018-02-27T07:29:50.203Z,57.63
2018-02-27T07:32:20.475Z,57.18
2018-02-27T07:34:50.860Z,56.12
2018-02-27T07:37:21.526Z,56.26
2018-02-27T07:39:53.077Z,55.86
2018-02-27T07:42:23.617Z,55.58
2018-02-27T07:44:53.682Z,55.26
2018-02-27T07:47:24.599Z,54.87
2018-02-27T07:49:54.526Z,54.58
2018-02-27T07:52:24.892Z,54.40
2018-02-27T07:54:56.114Z,54.10
2018-02-27T07:57:26.035Z,53.67
2018-02-27T07:59:58.205Z,53.52
2018-02-27T08:02:28.326Z,53.34
2018-02-27T08:04:58.444Z,53.68
2018-02-27T08:07:30.187Z,53.68
2018-02-27T08:10:00.306Z,53.47
2018-02-27T08:12:30.255Z,53.08
2018-02-27T08:15:00.247Z,53.33
2018-02-27T08:17:29.761Z,53.19
2018-02-27T08:20:01.235Z,53.09
2018-02-27T08:22:31.114Z,52.66
2018-02-27T08:25:01.986Z,52.10
2018-02-27T08:27:31.945Z,51.44
2018-02-27T08:30:02.075Z,51.27
2018-02-27T08:32:31.985Z,51.39
2018-02-27T08:35:01.821Z,51.46
2018-02-27T08:37:31.423Z,51.73
2018-02-27T08:40:02.209Z,51.60
2018-02-27T08:42:32.101Z,50.95
2018-02-27T08:45:01.865Z,50.69
2018-02-27T08:47:32.131Z,50.88
2018-02-27T08:50:02.347Z,49.62
2018-02-27T08:52:32.731Z,49.20
2018-02-27T08:55:02.862Z,49.18
2018-02-27T08:57:32.326Z,48.70
2018-02-27T09:00:01.792Z,48.19
2018-02-27T09:02:32.501Z,47.56
2018-02-27T09:05:02.309Z,47.07
2018-02-27T09:07:32.673Z,47.38
2018-02-27T09:10:02.702Z,47.76
2018-02-27T09:12:32.577Z,47.72
2018-02-27T09:15:02.119Z,47.42
2018-02-27T09:17:32.049Z,47.08
2018-02-27T09:20:01.603Z,47.23
2018-02-27T09:22:32.276Z,47.09
2018-02-27T09:25:02.055Z,47.18
2018-02-27T09:27:32.658Z,46.42
2018-02-27T09:30:02.670Z,45.53
2018-02-27T09:32:32.699Z,45.77
2018-02-27T09:35:02.819Z,45.59
2018-02-27T09:37:32.390Z,45.82
2018-02-27T09:40:02.406Z,45.04
2018-02-27T09:42:32.250Z,45.96
2018-02-27T09:45:01.966Z,46.23
2018-02-27T09:47:31.946Z,46.29
2018-02-27T09:50:02.710Z,45.57
2018-02-27T09:52:32.494Z,45.47
2018-02-27T09:55:02.907Z,44.38
2018-02-27T09:57:32.388Z,44.35
2018-02-27T10:00:02.654Z,43.83
2018-02-27T10:02:32.915Z,44.21
2018-02-27T10:05:02.737Z,44.58
2018-02-27T10:07:32.467Z,45.08
2018-02-27T10:10:03.001Z,44.55
2018-02-27T10:12:33.399Z,44.41
2018-02-27T10:15:02.963Z,44.29
2018-02-27T10:17:33.396Z,43.71
2018-02-27T10:20:02.957Z,44.09
2018-02-27T10:22:32.894Z,44.61
2018-02-27T10:25:02.968Z,44.47
2018-02-27T10:27:32.534Z,43.97
2018-02-27T10:30:02.186Z,43.74
2018-02-27T10:32:34.718Z,42.63
2018-02-27T10:35:04.780Z,42.48
2018-02-27T10:37:34.762Z,42.62
2018-02-27T10:40:04.929Z,42.39
2018-02-27T10:42:35.126Z,41.86
2018-02-27T10:45:05.372Z,41.83
2018-02-27T10:47:35.233Z,41.58
2018-02-27T10:50:06.307Z,40.76
2018-02-27T10:52:36.849Z,40.52
2018-02-27T10:55:07.665Z,39.92
2018-02-27T10:57:37.956Z,39.12
2018-02-27T11:00:08.165Z,38.61
2018-02-27T11:02:38.307Z,38.07
2018-02-27T11:05:07.789Z,38.10
2018-02-27T11:07:37.627Z,37.74
2018-02-27T11:10:07.373Z,38.48
2018-02-27T11:12:39.364Z,38.04
2018-02-27T11:15:09.831Z,37.87
2018-02-27T11:17:39.793Z,37.94
2018-02-27T11:20:09.584Z,37.39
2018-02-27T11:22:40.065Z,37.44
2018-02-27T11:25:09.737Z,36.73
2018-02-27T11:27:39.585Z,36.51
2018-02-27T11:30:09.380Z,36.79
2018-02-27T11:32:39.533Z,37.57
2018-02-27T11:35:09.062Z,36.63
2018-02-27T11:37:38.861Z,37.08
2018-02-27T11:40:08.994Z,36.89
2018-02-27T11:42:39.192Z,36.53
2018-02-27T11:45:09.150Z,36.31
2018-02-27T11:47:38.936Z,35.55
2018-02-27T11:50:08.399Z,35.39
2018-02-27T11:52:39.328Z,35.69
2018-02-27T11:55:09.241Z,35.99
2018-02-27T11:57:39.115Z,35.33
2018-02-27T12:00:09.082Z,35.44
2018-02-27T12:02:39.526Z,35.20
2018-02-27T12:05:08.940Z,35.31
2018-02-27T12:07:40.290Z,35.49
2018-02-27T12:10:09.896Z,35.58
2018-02-27T12:12:41.055Z,34.75
2018-02-27T12:15:12.263Z,34.95
2018-02-27T12:17:42.985Z,34.62
2018-02-27T12:20:13.108Z,34.41
2018-02-27T12:22:43.994Z,34.59
2018-02-27T12:25:14.016Z,34.13
2018-02-27T12:27:44.198Z,34.24
2018-02-27T12:30:14.943Z,33.87
2018-02-27T12:32:44.405Z,33.95
2018-02-27T12:35:13.846Z,33.22
2018-02-27T12:37:43.294Z,32.83
2018-02-27T12:40:12.999Z,32.41
2018-02-27T12:42:42.831Z,32.46
2018-02-27T12:45:12.375Z,32.73
2018-02-27T12:47:42.188Z,32.51
2018-02-27T12:50:11.654Z,32.97
2018-02-27T12:52:41.087Z,33.35
2018-02-27T12:55:10.854Z,33.04
2018-02-27T12:57:40.938Z,32.66
2018-02-27T13:00:10.538Z,32.64
2018-02-27T13:02:40.737Z,32.18
2018-02-27T13:05:10.173Z,32.02
2018-02-27T13:07:39.655Z,32.03
2018-02-27T13:10:09.266Z,31.43
2018-02-27T13:12:39.334Z,32.20
2018-02-27T13:15:08.775Z,32.15
2018-02-27T13:17:38.175Z,31.73
2018-02-27T13:20:08.378Z,31.44
2018-02-27T13:22:38.563Z,30.90
2018-02-27T13:25:08.073Z,31.38
2018-02-27T13:27:38.052Z,30.94
2018-02-27T13:30:08.269Z,30.90
2018-02-27T13:32:37.782Z,30.94
2018-02-27T13:35:07.438Z,30.59
2018-02-27T13:37:37.981Z,30.52
2018-02-27T13:40:07.785Z,30.18
2018-02-27T13:42:38.196Z,30.36
2018-02-27T13:45:07.737Z,30.57
2018-02-27T13:47:37.868Z,30.43
2018-02-27T13:50:07.366Z,30.19
2018-02-27T13:52:36.834Z,29.93
2018-02-27T13:55:06.467Z,29.69
2018-02-27T13:57:36.564Z,29.61
2018-02-27T14:00:06.084Z,29.21
2018-02-27T14:02:35.509Z,28.87
2018-02-27T14:05:05.015Z,28.99
2018-02-27T14:07:34.946Z,28.34
2018-02-27T14:10:04.997Z,28.13
2018-02-27T14:12:34.852Z,28.86
2018-02-27T14:15:04.700Z,28.94
2018-02-27T14:17:34.470Z,29.46
2018-02-27T14:20:04.074Z,29.44
2018-02-27T14:22:33.561Z,29.05
2018-02-27T14:25:04.990Z,28.74
2018-02-27T14:27:34.872Z,28.71
2018-02-27T14:30:04.720Z,29.02
2018-02-27T14:32:34.215Z,29.10
2018-02-27T14:35:03.713Z,29.04
2018-02-27T14:37:33.194Z,29.45
2018-02-27T14:40:02.658Z,29.29
2018-02-27T14:42:32.386Z,29.45
2018-02-27T14:45:01.808Z,29.24
2018-02-27T14:47:31.811Z,29.81
2018-02-27T14:50:01.836Z,29.16
2018-02-27T14:52:32.271Z,29.76
2018-02-27T14:55:01.773Z,30.01
2018-02-27T14:57:31.487Z,30.09
2018-02-27T15:00:01.098Z,30.36
2018-02-27T15:02:30.981Z,30.21
2018-02-27T15:05:00.577Z,30.36
2018-02-27T15:07:30.050Z,29.74
2018-02-27T15:09:59.497Z,29.64
2018-02-27T15:12:29.834Z,28.69
2018-02-27T15:14:59.779Z,29.31
2018-02-27T15:17:30.782Z,29.96
2018-02-27T15:20:01.245Z,30.76
2018-02-27T15:22:31.209Z,31.43
2018-02-27T15:25:00.638Z,31.81
2018-02-27T15:27:32.227Z,32.06
2018-02-27T15:30:02.859Z,32.26
2018-02-27T15:32:32.912Z,31.99
2018-02-27T15:35:02.522Z,31.87
2018-02-27T15:37:33.054Z,32.20
2018-02-27T15:40:03.278Z,32.36
2018-02-27T15:42:32.771Z,32.30
2018-02-27T15:45:02.274Z,32.12
2018-02-27T15:47:32.097Z,32.07
2018-02-27T15:50:02.368Z,32.04
2018-02-27T15:52:31.840Z,32.32
2018-02-27T15:55:01.772Z,32.12
2018-02-27T15:57:32.108Z,32.24
2018-02-27T16:00:01.620Z,32.50
2018-02-27T16:02:31.371Z,32.99
2018-02-27T16:05:00.924Z,33.36
2018-02-27T16:07:30.486Z,33.58
2018-02-27T16:10:00.275Z,33.72
2018-02-27T16:12:29.730Z,33.98
2018-02-27T16:14:59.289Z,34.03
2018-02-27T16:17:29.025Z,34.24
2018-02-27T16:19:58.441Z,34.26
2018-02-27T16:22:28.141Z,34.41
2018-02-27T16:24:57.914Z,34.74
2018-02-27T16:27:27.969Z,34.64
2018-02-27T16:29:57.422Z,34.50
2018-02-27T16:32:27.652Z,34.79
2018-02-27T16:34:57.062Z,35.10
2018-02-27T16:37:27.420Z,35.47
2018-02-27T16:39:57.232Z,36.12
2018-02-27T16:42:27.418Z,36.29
2018-02-27T16:44:56.852Z,36.27
2018-02-27T16:47:26.621Z,36.76
2018-02-27T16:49:56.032Z,36.70
2018-02-27T16:52:25.600Z,37.07
2018-02-27T16:54:55.455Z,37.35
2018-02-27T16:57:25.177Z,37.33
2018-02-27T16:59:56.099Z,37.30
2018-02-27T17:02:26.258Z,37.49
2018-02-27T17:04:55.737Z,37.54
2018-02-27T17:07:25.786Z,37.95
2018-02-27T17:09:55.638Z,37.96
2018-02-27T17:12:25.423Z,37.97
2018-02-27T17:14:55.221Z,38.06
2018-02-27T17:17:25.005Z,38.35
2018-02-27T17:19:55.053Z,38.55
2018-02-27T17:22:24.549Z,38.65
2018-02-27T17:24:54.617Z,38.93
2018-02-27T17:27:24.604Z,38.89
2018-02-27T17:29:55.055Z,39.04
2018-02-27T17:32:26.026Z,39.32
2018-02-27T17:34:55.541Z,39.33
2018-02-27T17:37:25.126Z,40.00
2018-02-27T17:39:54.808Z,40.03
2018-02-27T17:42:24.269Z,40.13
2018-02-27T17:44:53.769Z,40.06
2018-02-27T17:47:23.658Z,40.28
2018-02-27T17:49:53.240Z,40.45
2018-02-27T17:52:22.965Z,40.58
2018-02-27T17:54:52.950Z,40.69
2018-02-27T17:57:23.344Z,40.61
2018-02-27T17:59:52.761Z,41.01
2018-02-27T18:03:46.936Z,41.08
2018-02-27T18:06:16.901Z,41.54
2018-02-27T18:08:47.208Z,41.86
2018-02-27T18:11:17.455Z,42.00
2018-02-27T18:13:47.241Z,41.74
2018-02-27T18:16:17.250Z,42.05
2018-02-27T18:18:46.889Z,41.96
2018-02-27T18:21:16.705Z,42.01
2018-02-27T18:23:46.616Z,42.17
2018-02-27T18:26:16.578Z,42.05
2018-02-27T18:28:46.569Z,42.20
2018-02-27T18:31:16.064Z,42.37
2018-02-27T18:33:46.509Z,42.53
2018-02-27T18:36:15.982Z,42.83
2018-02-27T18:38:46.347Z,42.92
2018-02-27T18:41:15.994Z,42.80
2018-02-27T18:43:45.488Z,42.77
2018-02-27T18:46:15.306Z,42.88
2018-02-27T18:48:45.102Z,42.84
2018-02-27T18:51:14.593Z,43.34
2018-02-27T18:53:44.547Z,43.21
2018-02-27T18:56:14.200Z,43.20
2018-02-27T18:58:44.070Z,43.17
2018-02-27T19:01:14.351Z,43.24
2018-02-27T19:03:44.818Z,43.35
2018-02-27T19:06:14.306Z,43.29
2018-02-27T19:08:44.107Z,43.11
2018-02-27T19:11:13.823Z,43.46
2018-02-27T19:13:43.327Z,43.37
2018-02-27T19:16:13.627Z,43.53
2018-02-27T19:18:43.095Z,43.55
2018-02-27T19:21:12.785Z,43.74
2018-02-27T19:23:42.833Z,44.08
2018-02-27T19:26:12.505Z,43.71
2018-02-27T19:28:42.063Z,43.71
2018-02-27T19:31:12.589Z,43.98
2018-02-27T19:33:42.059Z,44.34
2018-02-27T19:36:12.473Z,44.35
2018-02-27T19:38:42.643Z,44.45
2018-02-27T19:41:12.134Z,44.53
2018-02-27T19:43:41.779Z,44.76
2018-02-27T19:46:12.920Z,44.87
2018-02-27T19:48:42.936Z,45.07
2018-02-27T19:51:13.357Z,45.20
2018-02-27T19:53:43.253Z,45.28
2018-02-27T19:56:12.835Z,45.19
2018-02-27T19:58:42.360Z,45.27
2018-02-27T20:01:12.496Z,45.23
2018-02-27T20:03:41.960Z,45.49
2018-02-27T20:06:11.482Z,45.77
2018-02-27T20:08:42.304Z,45.84
2018-02-27T20:11:11.879Z,45.91
2018-02-27T20:13:41.884Z,46.01
2018-02-27T20:16:11.890Z,45.87
2018-02-27T20:18:42.092Z,46.31
2018-02-27T20:21:11.515Z,46.11
2018-02-27T20:23:46.198Z,45.99
2018-02-27T20:26:16.197Z,46.07
2018-02-27T20:28:49.659Z,46.13
2018-02-27T20:31:19.529Z,46.36
2018-02-27T20:33:49.117Z,46.23
2018-02-27T20:36:18.528Z,46.58
2018-02-27T20:38:52.755Z,46.52
2018-02-27T20:41:22.438Z,46.54
2018-02-27T20:43:51.965Z,46.39
2018-02-27T20:46:21.754Z,46.51
2018-02-27T20:48:51.400Z,46.49
2018-02-27T20:51:20.850Z,46.55
2018-02-27T20:53:51.153Z,47.12
2018-02-27T20:56:20.696Z,47.14
2018-02-27T20:58:50.617Z,46.90
2018-02-27T21:01:20.534Z,47.33
2018-02-27T21:03:49.991Z,47.70
2018-02-27T21:06:20.231Z,47.74
2018-02-27T21:08:50.017Z,47.87
2018-02-27T21:11:19.461Z,47.97
2018-02-27T21:13:48.961Z,47.99
2018-02-27T21:16:19.025Z,47.99
2018-02-27T21:18:48.868Z,47.85
2018-02-27T21:21:18.705Z,47.86
2018-02-27T21:23:48.535Z,48.19
2018-02-27T21:26:18.931Z,47.89
2018-02-27T21:28:49.277Z,47.84
2018-02-27T21:31:19.858Z,48.07
2018-02-27T21:33:49.374Z,48.22
2018-02-27T21:36:18.929Z,48.51
2018-02-27T21:38:49.421Z,48.48
2018-02-27T21:41:19.134Z,48.22
2018-02-27T21:43:49.187Z,48.65
2018-02-27T21:46:19.760Z,48.65
2018-02-27T21:48:49.303Z,48.85
2018-02-27T21:51:19.323Z,48.37
2018-02-27T21:53:49.488Z,48.72
2018-02-27T21:56:18.895Z,48.35
2018-02-27T21:58:50.279Z,48.37
2018-02-27T22:01:20.592Z,48.52
2018-02-27T22:03:50.091Z,48.81
2018-02-27T22:06:20.899Z,48.61
2018-02-27T22:08:51.168Z,48.93
2018-02-27T22:11:20.902Z,49.11
2018-02-27T22:13:51.067Z,49.14
2018-02-27T22:16:21.120Z,49.17
2018-02-27T22:18:50.951Z,49.45
2018-02-27T22:21:20.390Z,49.28
2018-02-27T22:23:50.666Z,49.35
2018-02-27T22:26:20.592Z,49.65
2018-02-27T22:28:50.720Z,49.98
2018-02-27T22:31:21.307Z,49.99
2018-02-27T22:33:51.513Z,49.93
2018-02-27T22:36:20.942Z,50.04
2018-02-27T22:38:50.814Z,50.33
2018-02-27T22:41:20.550Z,50.68
2018-02-27T22:43:49.956Z,51.16
2018-02-27T22:46:19.711Z,51.25
2018-02-27T22:48:50.216Z,51.33
2018-02-27T22:51:20.398Z,51.53
2018-02-27T22:53:50.364Z,51.36
2018-02-27T22:56:20.017Z,51.10
2018-02-27T22:58:49.636Z,51.11
2018-02-27T23:01:19.443Z,51.05
2018-02-27T23:03:49.343Z,51.00
2018-02-27T23:06:19.613Z,51.04
2018-02-27T23:08:49.769Z,50.90
2018-02-27T23:11:20.420Z,50.93
2018-02-27T23:13:49.910Z,51.15
2018-02-27T23:16:20.887Z,51.15
2018-02-27T23:18:50.828Z,51.21
2018-02-27T23:21:20.320Z,51.26
2018-02-27T23:24:00.584Z,51.73
2018-02-27T23:26:50.666Z,52.01
2018-02-27T23:29:25.561Z,52.18
2018-02-27T23:31:59.623Z,51.90
2018-02-27T23:34:56.765Z,51.76
2018-02-27T23:37:27.188Z,52.01
2018-02-27T23:39:57.609Z,52.00
2018-02-27T23:42:27.360Z,51.97
2018-02-27T23:44:56.904Z,52.16
2018-02-27T23:47:27.002Z,52.32
2018-02-27T23:49:56.822Z,52.15
2018-02-27T23:52:26.922Z,52.16
2018-02-27T23:54:57.616Z,52.24
2018-02-27T23:57:28.598Z,52.27
2018-02-27T23:59:58.458Z,52.45
